sensor_id;sensor_type;location;lat;lon;timestamp;pressure;altitude;pressure_sealevel;temperature
42673;BMP280;28284;46.514;30.724;2023-09-12T00:00:07;101036.50;;;19.33
42673;BMP280;28284;46.514;30.724;2023-09-12T00:02:32;101035.41;;;19.30
42673;BMP280;28284;46.514;30.724;2023-09-12T00:04:58;101031.88;;;19.30
42673;BMP280;28284;46.514;30.724;2023-09-12T00:07:23;101036.16;;;19.31
42673;BMP280;28284;46.514;30.724;2023-09-12T00:09:49;101033.06;;;19.29
42673;BMP280;28284;46.514;30.724;2023-09-12T00:12:14;101039.34;;;19.29
42673;BMP280;28284;46.514;30.724;2023-09-12T00:14:40;101032.31;;;19.28
42673;BMP280;28284;46.514;30.724;2023-09-12T00:17:05;101037.88;;;19.25
42673;BMP280;28284;46.514;30.724;2023-09-12T00:19:30;101041.81;;;19.24
42673;BMP280;28284;46.514;30.724;2023-09-12T00:21:55;101036.38;;;19.20
42673;BMP280;28284;46.514;30.724;2023-09-12T00:24:21;101038.03;;;19.18
42673;BMP280;28284;46.514;30.724;2023-09-12T00:26:46;101032.19;;;19.16
42673;BMP280;28284;46.514;30.724;2023-09-12T00:29:11;101040.41;;;19.16
42673;BMP280;28284;46.514;30.724;2023-09-12T00:31:36;101027.91;;;19.15
42673;BMP280;28284;46.514;30.724;2023-09-12T00:34:02;101037.66;;;19.16
42673;BMP280;28284;46.514;30.724;2023-09-12T00:36:27;101035.28;;;19.18
42673;BMP280;28284;46.514;30.724;2023-09-12T00:38:52;101038.38;;;19.20
42673;BMP280;28284;46.514;30.724;2023-09-12T00:41:18;101037.16;;;19.21
42673;BMP280;28284;46.514;30.724;2023-09-12T00:43:43;101037.88;;;19.25
42673;BMP280;28284;46.514;30.724;2023-09-12T00:46:08;101038.56;;;19.29
42673;BMP280;28284;46.514;30.724;2023-09-12T00:48:34;101034.97;;;19.32
42673;BMP280;28284;46.514;30.724;2023-09-12T00:51:00;101033.25;;;19.37
42673;BMP280;28284;46.514;30.724;2023-09-12T00:53:26;101036.69;;;19.41
42673;BMP280;28284;46.514;30.724;2023-09-12T00:55:53;101033.09;;;19.44
42673;BMP280;28284;46.514;30.724;2023-09-12T00:58:21;101030.72;;;19.46
42673;BMP280;28284;46.514;30.724;2023-09-12T01:00:46;101032.59;;;19.49
42673;BMP280;28284;46.514;30.724;2023-09-12T01:03:13;101030.97;;;19.52
42673;BMP280;28284;46.514;30.724;2023-09-12T01:05:38;101033.66;;;19.55
42673;BMP280;28284;46.514;30.724;2023-09-12T01:08:04;101042.56;;;19.59
42673;BMP280;28284;46.514;30.724;2023-09-12T01:10:29;101038.63;;;19.60
42673;BMP280;28284;46.514;30.724;2023-09-12T01:12:55;101042.94;;;19.61
42673;BMP280;28284;46.514;30.724;2023-09-12T01:15:20;101034.22;;;19.63
42673;BMP280;28284;46.514;30.724;2023-09-12T01:17:45;101036.22;;;19.62
42673;BMP280;28284;46.514;30.724;2023-09-12T01:20:13;101043.25;;;19.63
42673;BMP280;28284;46.514;30.724;2023-09-12T01:25:34;101047.16;;;19.66
42673;BMP280;28284;46.514;30.724;2023-09-12T01:28:04;101044.81;;;19.64
42673;BMP280;28284;46.514;30.724;2023-09-12T01:30:31;101040.53;;;19.63
42673;BMP280;28284;46.514;30.724;2023-09-12T01:32:57;101049.97;;;19.62
42673;BMP280;28284;46.514;30.724;2023-09-12T01:35:23;101043.25;;;19.63
42673;BMP280;28284;46.514;30.724;2023-09-12T01:37:48;101052.66;;;19.66
42673;BMP280;28284;46.514;30.724;2023-09-12T01:40:13;101047.91;;;19.66
42673;BMP280;28284;46.514;30.724;2023-09-12T01:42:41;101056.94;;;19.67
42673;BMP280;28284;46.514;30.724;2023-09-12T01:45:09;101051.50;;;19.63
42673;BMP280;28284;46.514;30.724;2023-09-12T01:47:35;101041.88;;;19.55
42673;BMP280;28284;46.514;30.724;2023-09-12T01:50:01;101047.22;;;19.62
42673;BMP280;28284;46.514;30.724;2023-09-12T01:52:27;101049.25;;;19.58
42673;BMP280;28284;46.514;30.724;2023-09-12T01:54:53;101037.03;;;19.43
42673;BMP280;28284;46.514;30.724;2023-09-12T01:57:19;101052.94;;;19.52
42673;BMP280;28284;46.514;30.724;2023-09-12T01:59:47;101053.47;;;19.47
42673;BMP280;28284;46.514;30.724;2023-09-12T02:02:14;101054.31;;;19.44
42673;BMP280;28284;46.514;30.724;2023-09-12T02:04:40;101055.91;;;19.41
42673;BMP280;28284;46.514;30.724;2023-09-12T02:07:05;101057.97;;;19.37
42673;BMP280;28284;46.514;30.724;2023-09-12T02:09:30;101060.81;;;19.34
42673;BMP280;28284;46.514;30.724;2023-09-12T02:11:55;101061.22;;;19.33
42673;BMP280;28284;46.514;30.724;2023-09-12T02:14:21;101055.03;;;19.29
42673;BMP280;28284;46.514;30.724;2023-09-12T02:16:46;101062.16;;;19.26
42673;BMP280;28284;46.514;30.724;2023-09-12T02:19:12;101063.84;;;19.20
42673;BMP280;28284;46.514;30.724;2023-09-12T02:21:37;101056.88;;;19.16
42673;BMP280;28284;46.514;30.724;2023-09-12T02:24:02;101057.03;;;19.09
42673;BMP280;28284;46.514;30.724;2023-09-12T02:26:27;101056.31;;;19.05
42673;BMP280;28284;46.514;30.724;2023-09-12T02:28:53;101051.69;;;19.02
42673;BMP280;28284;46.514;30.724;2023-09-12T02:31:18;101052.13;;;19.00
42673;BMP280;28284;46.514;30.724;2023-09-12T02:33:43;101051.44;;;18.96
42673;BMP280;28284;46.514;30.724;2023-09-12T02:36:09;101051.50;;;18.93
42673;BMP280;28284;46.514;30.724;2023-09-12T02:38:34;101050.00;;;18.88
42673;BMP280;28284;46.514;30.724;2023-09-12T02:40:59;101054.38;;;18.86
42673;BMP280;28284;46.514;30.724;2023-09-12T02:43:24;101055.63;;;18.81
42673;BMP280;28284;46.514;30.724;2023-09-12T02:45:50;101056.09;;;18.76
42673;BMP280;28284;46.514;30.724;2023-09-12T02:48:15;101053.81;;;18.75
42673;BMP280;28284;46.514;30.724;2023-09-12T02:50:40;101057.75;;;18.74
42673;BMP280;28284;46.514;30.724;2023-09-12T02:53:06;101057.75;;;18.74
42673;BMP280;28284;46.514;30.724;2023-09-12T02:55:31;101053.44;;;18.73
42673;BMP280;28284;46.514;30.724;2023-09-12T02:57:56;101058.94;;;18.73
42673;BMP280;28284;46.514;30.724;2023-09-12T03:00:22;101060.56;;;18.71
42673;BMP280;28284;46.514;30.724;2023-09-12T03:02:47;101063.69;;;18.69
42673;BMP280;28284;46.514;30.724;2023-09-12T03:05:13;101059.41;;;18.68
42673;BMP280;28284;46.514;30.724;2023-09-12T03:07:38;101063.41;;;18.64
42673;BMP280;28284;46.514;30.724;2023-09-12T03:10:03;101066.59;;;18.62
42673;BMP280;28284;46.514;30.724;2023-09-12T03:12:29;101069.75;;;18.61
42673;BMP280;28284;46.514;30.724;2023-09-12T03:14:54;101070.16;;;18.59
42673;BMP280;28284;46.514;30.724;2023-09-12T03:17:20;101077.63;;;18.59
42673;BMP280;28284;46.514;30.724;2023-09-12T03:19:45;101074.09;;;18.58
42673;BMP280;28284;46.514;30.724;2023-09-12T03:22:10;101073.34;;;18.58
42673;BMP280;28284;46.514;30.724;2023-09-12T03:24:36;101070.59;;;18.58
42673;BMP280;28284;46.514;30.724;2023-09-12T03:27:01;101067.41;;;18.59
42673;BMP280;28284;46.514;30.724;2023-09-12T03:29:26;101077.13;;;18.64
42673;BMP280;28284;46.514;30.724;2023-09-12T03:31:51;101079.06;;;18.67
42673;BMP280;28284;46.514;30.724;2023-09-12T03:34:17;101080.47;;;18.74
42673;BMP280;28284;46.514;30.724;2023-09-12T03:36:42;101084.25;;;18.80
42673;BMP280;28284;46.514;30.724;2023-09-12T03:39:07;101085.63;;;18.92
42673;BMP280;28284;46.514;30.724;2023-09-12T03:41:34;101086.13;;;19.06
42673;BMP280;28284;46.514;30.724;2023-09-12T03:43:59;101094.28;;;19.29
42673;BMP280;28284;46.514;30.724;2023-09-12T03:46:24;101093.75;;;19.53
42673;BMP280;28284;46.514;30.724;2023-09-12T03:48:50;101093.53;;;19.80
42673;BMP280;28284;46.514;30.724;2023-09-12T03:51:15;101091.56;;;20.12
42673;BMP280;28284;46.514;30.724;2023-09-12T03:53:40;101102.78;;;20.49
42673;BMP280;28284;46.514;30.724;2023-09-12T03:56:06;101102.03;;;20.77
42673;BMP280;28284;46.514;30.724;2023-09-12T03:58:31;101097.97;;;21.10
42673;BMP280;28284;46.514;30.724;2023-09-12T04:00:57;101107.28;;;21.53
42673;BMP280;28284;46.514;30.724;2023-09-12T04:03:22;101099.41;;;22.01
42673;BMP280;28284;46.514;30.724;2023-09-12T04:05:47;101104.38;;;22.52
42673;BMP280;28284;46.514;30.724;2023-09-12T04:08:13;101111.63;;;23.01
42673;BMP280;28284;46.514;30.724;2023-09-12T04:10:38;101110.50;;;23.50
42673;BMP280;28284;46.514;30.724;2023-09-12T04:13:04;101119.41;;;24.02
42673;BMP280;28284;46.514;30.724;2023-09-12T04:15:29;101118.38;;;24.44
42673;BMP280;28284;46.514;30.724;2023-09-12T04:17:54;101128.34;;;24.86
42673;BMP280;28284;46.514;30.724;2023-09-12T04:20:20;101126.22;;;25.31
42673;BMP280;28284;46.514;30.724;2023-09-12T04:22:45;101131.47;;;25.85
42673;BMP280;28284;46.514;30.724;2023-09-12T04:25:10;101129.84;;;26.39
42673;BMP280;28284;46.514;30.724;2023-09-12T04:27:36;101132.66;;;26.97
42673;BMP280;28284;46.514;30.724;2023-09-12T04:30:01;101138.31;;;27.51
42673;BMP280;28284;46.514;30.724;2023-09-12T04:32:27;101141.84;;;28.05
42673;BMP280;28284;46.514;30.724;2023-09-12T04:34:52;101139.16;;;28.61
42673;BMP280;28284;46.514;30.724;2023-09-12T04:37:17;101141.13;;;29.17
42673;BMP280;28284;46.514;30.724;2023-09-12T04:39:43;101145.75;;;29.61
42673;BMP280;28284;46.514;30.724;2023-09-12T04:42:08;101156.34;;;30.10
42673;BMP280;28284;46.514;30.724;2023-09-12T04:44:38;101154.88;;;30.52
42673;BMP280;28284;46.514;30.724;2023-09-12T04:47:04;101157.97;;;30.87
42673;BMP280;28284;46.514;30.724;2023-09-12T04:49:29;101158.44;;;31.18
42673;BMP280;28284;46.514;30.724;2023-09-12T04:51:54;101157.09;;;31.46
42673;BMP280;28284;46.514;30.724;2023-09-12T04:54:19;101157.19;;;31.86
42673;BMP280;28284;46.514;30.724;2023-09-12T04:56:45;101173.50;;;32.28
42673;BMP280;28284;46.514;30.724;2023-09-12T04:59:10;101172.22;;;32.63
42673;BMP280;28284;46.514;30.724;2023-09-12T05:01:35;101172.94;;;32.98
42673;BMP280;28284;46.514;30.724;2023-09-12T05:04:01;101179.47;;;33.30
42673;BMP280;28284;46.514;30.724;2023-09-12T05:06:27;101179.09;;;33.63
42673;BMP280;28284;46.514;30.724;2023-09-12T05:08:55;101179.56;;;34.03
42673;BMP280;28284;46.514;30.724;2023-09-12T05:11:23;101178.19;;;34.41
42673;BMP280;28284;46.514;30.724;2023-09-12T05:13:49;101177.72;;;34.81
42673;BMP280;28284;46.514;30.724;2023-09-12T05:16:17;101187.66;;;35.13
42673;BMP280;28284;46.514;30.724;2023-09-12T05:18:42;101181.34;;;35.46
42673;BMP280;28284;46.514;30.724;2023-09-12T05:21:07;101188.31;;;35.78
42673;BMP280;28284;46.514;30.724;2023-09-12T05:23:35;101192.56;;;36.04
42673;BMP280;28284;46.514;30.724;2023-09-12T05:26:00;101197.66;;;36.26
42673;BMP280;28284;46.514;30.724;2023-09-12T05:28:26;101196.81;;;36.59
42673;BMP280;28284;46.514;30.724;2023-09-12T05:30:52;101206.91;;;36.95
42673;BMP280;28284;46.514;30.724;2023-09-12T05:33:17;101209.28;;;37.11
42673;BMP280;28284;46.514;30.724;2023-09-12T05:35:42;101210.13;;;36.99
42673;BMP280;28284;46.514;30.724;2023-09-12T05:38:09;101209.59;;;37.08
42673;BMP280;28284;46.514;30.724;2023-09-12T05:40:34;101208.78;;;37.27
42673;BMP280;28284;46.514;30.724;2023-09-12T05:43:00;101211.91;;;37.52
42673;BMP280;28284;46.514;30.724;2023-09-12T05:45:25;101214.09;;;37.73
42673;BMP280;28284;46.514;30.724;2023-09-12T05:47:50;101213.72;;;37.92
42673;BMP280;28284;46.514;30.724;2023-09-12T05:50:16;101214.94;;;38.18
42673;BMP280;28284;46.514;30.724;2023-09-12T05:52:42;101211.94;;;38.46
42673;BMP280;28284;46.514;30.724;2023-09-12T05:55:10;101226.28;;;38.33
42673;BMP280;28284;46.514;30.724;2023-09-12T05:57:35;101215.31;;;38.22
42673;BMP280;28284;46.514;30.724;2023-09-12T06:00:00;101227.41;;;38.38
42673;BMP280;28284;46.514;30.724;2023-09-12T06:02:26;101220.59;;;38.55
42673;BMP280;28284;46.514;30.724;2023-09-12T06:04:52;101224.19;;;38.71
42673;BMP280;28284;46.514;30.724;2023-09-12T06:07:17;101222.84;;;38.79
42673;BMP280;28284;46.514;30.724;2023-09-12T06:09:42;101223.19;;;38.90
42673;BMP280;28284;46.514;30.724;2023-09-12T06:12:08;101225.28;;;38.97
42673;BMP280;28284;46.514;30.724;2023-09-12T06:14:33;101230.75;;;39.03
42673;BMP280;28284;46.514;30.724;2023-09-12T06:16:58;101236.41;;;39.10
42673;BMP280;28284;46.514;30.724;2023-09-12T06:19:24;101232.25;;;39.04
42673;BMP280;28284;46.514;30.724;2023-09-12T06:21:50;101233.97;;;38.99
42673;BMP280;28284;46.514;30.724;2023-09-12T06:24:16;101241.31;;;39.02
42673;BMP280;28284;46.514;30.724;2023-09-12T06:26:41;101234.88;;;39.09
42673;BMP280;28284;46.514;30.724;2023-09-12T06:29:07;101232.22;;;39.11
42673;BMP280;28284;46.514;30.724;2023-09-12T06:31:32;101236.78;;;39.14
42673;BMP280;28284;46.514;30.724;2023-09-12T06:33:58;101245.47;;;39.16
42673;BMP280;28284;46.514;30.724;2023-09-12T06:36:26;101240.50;;;39.24
42673;BMP280;28284;46.514;30.724;2023-09-12T06:38:54;101238.81;;;39.21
42673;BMP280;28284;46.514;30.724;2023-09-12T06:41:19;101243.34;;;39.24
42673;BMP280;28284;46.514;30.724;2023-09-12T06:43:45;101252.22;;;39.28
42673;BMP280;28284;46.514;30.724;2023-09-12T06:46:10;101250.50;;;39.25
42673;BMP280;28284;46.514;30.724;2023-09-12T06:48:35;101248.66;;;39.20
42673;BMP280;28284;46.514;30.724;2023-09-12T06:51:04;101250.41;;;39.08
42673;BMP280;28284;46.514;30.724;2023-09-12T06:53:30;101252.28;;;39.06
42673;BMP280;28284;46.514;30.724;2023-09-12T06:55:55;101258.91;;;39.01
42673;BMP280;28284;46.514;30.724;2023-09-12T06:58:22;101258.34;;;39.02
42673;BMP280;28284;46.514;30.724;2023-09-12T07:00:47;101262.69;;;39.03
42673;BMP280;28284;46.514;30.724;2023-09-12T07:03:13;101266.28;;;39.04
42673;BMP280;28284;46.514;30.724;2023-09-12T07:05:38;101256.66;;;38.84
42673;BMP280;28284;46.514;30.724;2023-09-12T07:08:05;101259.69;;;38.79
42673;BMP280;28284;46.514;30.724;2023-09-12T07:10:30;101256.84;;;38.79
42673;BMP280;28284;46.514;30.724;2023-09-12T07:12:55;101259.16;;;38.66
42673;BMP280;28284;46.514;30.724;2023-09-12T07:15:21;101258.41;;;38.50
42673;BMP280;28284;46.514;30.724;2023-09-12T07:17:46;101256.09;;;38.12
42673;BMP280;28284;46.514;30.724;2023-09-12T07:20:12;101252.03;;;37.43
42673;BMP280;28284;46.514;30.724;2023-09-12T07:22:38;101251.00;;;36.98
42673;BMP280;28284;46.514;30.724;2023-09-12T07:25:04;101245.72;;;36.54
42673;BMP280;28284;46.514;30.724;2023-09-12T07:27:30;101247.78;;;36.13
42673;BMP280;28284;46.514;30.724;2023-09-12T07:29:56;101247.78;;;36.00
42673;BMP280;28284;46.514;30.724;2023-09-12T07:32:21;101248.94;;;35.84
42673;BMP280;28284;46.514;30.724;2023-09-12T07:34:46;101260.13;;;35.51
42673;BMP280;28284;46.514;30.724;2023-09-12T07:37:13;101244.97;;;35.41
42673;BMP280;28284;46.514;30.724;2023-09-12T07:39:39;101242.28;;;35.49
42673;BMP280;28284;46.514;30.724;2023-09-12T07:42:04;101237.59;;;35.38
42673;BMP280;28284;46.514;30.724;2023-09-12T07:44:29;101246.59;;;35.37
42673;BMP280;28284;46.514;30.724;2023-09-12T07:46:55;101243.66;;;35.42
42673;BMP280;28284;46.514;30.724;2023-09-12T07:49:20;101241.03;;;35.18
42673;BMP280;28284;46.514;30.724;2023-09-12T07:51:45;101246.59;;;35.11
42673;BMP280;28284;46.514;30.724;2023-09-12T07:54:11;101244.50;;;34.99
42673;BMP280;28284;46.514;30.724;2023-09-12T07:56:36;101249.34;;;34.85
42673;BMP280;28284;46.514;30.724;2023-09-12T07:59:01;101237.56;;;34.56
42673;BMP280;28284;46.514;30.724;2023-09-12T08:01:27;101239.66;;;34.37
42673;BMP280;28284;46.514;30.724;2023-09-12T08:03:52;101242.78;;;34.15
42673;BMP280;28284;46.514;30.724;2023-09-12T08:06:17;101240.97;;;33.99
42673;BMP280;28284;46.514;30.724;2023-09-12T08:08:43;101235.38;;;33.76
42673;BMP280;28284;46.514;30.724;2023-09-12T08:11:08;101230.41;;;33.63
42673;BMP280;28284;46.514;30.724;2023-09-12T08:13:33;101237.66;;;33.35
42673;BMP280;28284;46.514;30.724;2023-09-12T08:15:59;101235.75;;;33.19
42673;BMP280;28284;46.514;30.724;2023-09-12T08:18:26;101232.88;;;33.01
42673;BMP280;28284;46.514;30.724;2023-09-12T08:20:51;101223.94;;;32.73
42673;BMP280;28284;46.514;30.724;2023-09-12T08:23:17;101228.19;;;32.50
42673;BMP280;28284;46.514;30.724;2023-09-12T08:25:42;101235.09;;;32.44
42673;BMP280;28284;46.514;30.724;2023-09-12T08:28:07;101229.59;;;32.28
42673;BMP280;28284;46.514;30.724;2023-09-12T08:30:33;101238.06;;;32.17
42673;BMP280;28284;46.514;30.724;2023-09-12T08:32:58;101235.63;;;31.97
42673;BMP280;28284;46.514;30.724;2023-09-12T08:35:23;101232.34;;;31.77
42673;BMP280;28284;46.514;30.724;2023-09-12T08:37:49;101225.81;;;31.58
42673;BMP280;28284;46.514;30.724;2023-09-12T08:40:14;101231.16;;;31.51
42673;BMP280;28284;46.514;30.724;2023-09-12T08:42:40;101232.72;;;31.35
42673;BMP280;28284;46.514;30.724;2023-09-12T08:45:11;101227.91;;;31.09
42673;BMP280;28284;46.514;30.724;2023-09-12T08:47:38;101228.19;;;30.94
42673;BMP280;28284;46.514;30.724;2023-09-12T08:50:04;101228.41;;;30.74
42673;BMP280;28284;46.514;30.724;2023-09-12T08:52:29;101223.53;;;30.53
42673;BMP280;28284;46.514;30.724;2023-09-12T08:54:55;101229.88;;;30.37
42673;BMP280;28284;46.514;30.724;2023-09-12T08:57:20;101223.97;;;30.19
42673;BMP280;28284;46.514;30.724;2023-09-12T08:59:46;101230.78;;;30.13
42673;BMP280;28284;46.514;30.724;2023-09-12T09:02:12;101214.50;;;30.00
42673;BMP280;28284;46.514;30.724;2023-09-12T09:04:38;101208.06;;;29.83
42673;BMP280;28284;46.514;30.724;2023-09-12T09:07:04;101215.03;;;29.63
42673;BMP280;28284;46.514;30.724;2023-09-12T09:09:30;101215.56;;;29.61
42673;BMP280;28284;46.514;30.724;2023-09-12T09:11:56;101215.91;;;29.43
42673;BMP280;28284;46.514;30.724;2023-09-12T09:14:21;101211.69;;;29.22
42673;BMP280;28284;46.514;30.724;2023-09-12T09:16:47;101203.22;;;29.06
42673;BMP280;28284;46.514;30.724;2023-09-12T09:19:12;101213.53;;;29.00
42673;BMP280;28284;46.514;30.724;2023-09-12T09:21:37;101209.50;;;29.01
42673;BMP280;28284;46.514;30.724;2023-09-12T09:24:09;101222.34;;;28.88
42673;BMP280;28284;46.514;30.724;2023-09-12T09:26:44;101217.22;;;28.86
42673;BMP280;28284;46.514;30.724;2023-09-12T09:29:12;101212.94;;;28.66
42673;BMP280;28284;46.514;30.724;2023-09-12T09:31:41;101204.41;;;28.49
42673;BMP280;28284;46.514;30.724;2023-09-12T09:34:13;101201.31;;;28.42
42673;BMP280;28284;46.514;30.724;2023-09-12T09:36:49;101197.41;;;28.34
42673;BMP280;28284;46.514;30.724;2023-09-12T09:39:22;101202.38;;;28.24
42673;BMP280;28284;46.514;30.724;2023-09-12T09:41:48;101207.56;;;28.17
42673;BMP280;28284;46.514;30.724;2023-09-12T09:44:14;101209.03;;;28.13
42673;BMP280;28284;46.514;30.724;2023-09-12T09:46:39;101195.19;;;28.18
42673;BMP280;28284;46.514;30.724;2023-09-12T09:49:09;101198.03;;;28.04
42673;BMP280;28284;46.514;30.724;2023-09-12T09:51:40;101198.72;;;27.99
42673;BMP280;28284;46.514;30.724;2023-09-12T09:54:07;101201.38;;;27.88
42673;BMP280;28284;46.514;30.724;2023-09-12T09:56:32;101198.31;;;27.86
42673;BMP280;28284;46.514;30.724;2023-09-12T09:59:09;101190.47;;;27.70
42673;BMP280;28284;46.514;30.724;2023-09-12T10:01:38;101186.50;;;27.57
42673;BMP280;28284;46.514;30.724;2023-09-12T10:04:03;101205.34;;;27.47
42673;BMP280;28284;46.514;30.724;2023-09-12T10:06:29;101194.56;;;27.40
42673;BMP280;28284;46.514;30.724;2023-09-12T10:08:55;101198.13;;;27.41
42673;BMP280;28284;46.514;30.724;2023-09-12T10:11:24;101196.78;;;27.36
42673;BMP280;28284;46.514;30.724;2023-09-12T10:13:52;101186.06;;;27.29
42673;BMP280;28284;46.514;30.724;2023-09-12T10:16:18;101206.28;;;27.30
42673;BMP280;28284;46.514;30.724;2023-09-12T10:21:49;101204.00;;;27.14
42673;BMP280;28284;46.514;30.724;2023-09-12T10:24:17;101199.91;;;27.10
42673;BMP280;28284;46.514;30.724;2023-09-12T10:26:43;101200.81;;;27.07
42673;BMP280;28284;46.514;30.724;2023-09-12T10:29:10;101197.59;;;27.08
42673;BMP280;28284;46.514;30.724;2023-09-12T10:31:37;101204.41;;;27.07
42673;BMP280;28284;46.514;30.724;2023-09-12T10:34:02;101196.50;;;27.06
42673;BMP280;28284;46.514;30.724;2023-09-12T10:36:29;101213.13;;;27.00
42673;BMP280;28284;46.514;30.724;2023-09-12T10:38:54;101202.69;;;26.95
42673;BMP280;28284;46.514;30.724;2023-09-12T10:41:20;101199.22;;;26.86
42673;BMP280;28284;46.514;30.724;2023-09-12T10:43:46;101205.16;;;26.79
42673;BMP280;28284;46.514;30.724;2023-09-12T10:46:15;101196.81;;;26.79
42673;BMP280;28284;46.514;30.724;2023-09-12T10:48:41;101196.97;;;26.75
42673;BMP280;28284;46.514;30.724;2023-09-12T10:51:07;101193.06;;;26.68
42673;BMP280;28284;46.514;30.724;2023-09-12T10:53:33;101195.41;;;26.60
42673;BMP280;28284;46.514;30.724;2023-09-12T10:56:20;101191.59;;;26.58
42673;BMP280;28284;46.514;30.724;2023-09-12T11:01:41;101188.59;;;26.47
42673;BMP280;28284;46.514;30.724;2023-09-12T11:06:47;101174.81;;;26.52
42673;BMP280;28284;46.514;30.724;2023-09-12T11:11:38;101173.69;;;26.59
42673;BMP280;28284;46.514;30.724;2023-09-12T11:14:04;101168.69;;;26.63
42673;BMP280;28284;46.514;30.724;2023-09-12T11:16:29;101185.00;;;26.70
42673;BMP280;28284;46.514;30.724;2023-09-12T11:21:40;101182.63;;;26.77
42673;BMP280;28284;46.514;30.724;2023-09-12T11:24:06;101181.16;;;26.81
42673;BMP280;28284;46.514;30.724;2023-09-12T11:26:31;101180.19;;;26.84
42673;BMP280;28284;46.514;30.724;2023-09-12T11:28:57;101199.31;;;26.91
42673;BMP280;28284;46.514;30.724;2023-09-12T11:31:35;101175.31;;;26.94
42673;BMP280;28284;46.514;30.724;2023-09-12T11:34:02;101174.34;;;26.97
42673;BMP280;28284;46.514;30.724;2023-09-12T11:36:28;101174.88;;;26.95
42673;BMP280;28284;46.514;30.724;2023-09-12T11:38:53;101170.63;;;27.00
42673;BMP280;28284;46.514;30.724;2023-09-12T11:41:38;101164.59;;;27.01
42673;BMP280;28284;46.514;30.724;2023-09-12T11:44:04;101173.97;;;27.04
42673;BMP280;28284;46.514;30.724;2023-09-12T11:46:29;101166.81;;;26.97
42673;BMP280;28284;46.514;30.724;2023-09-12T11:48:56;101157.22;;;26.98
42673;BMP280;28284;46.514;30.724;2023-09-12T11:51:21;101159.78;;;27.02
42673;BMP280;28284;46.514;30.724;2023-09-12T11:53:51;101156.44;;;26.98
42673;BMP280;28284;46.514;30.724;2023-09-12T11:56:18;101155.94;;;26.99
42673;BMP280;28284;46.514;30.724;2023-09-12T11:58:43;101157.97;;;26.99
42673;BMP280;28284;46.514;30.724;2023-09-12T12:01:08;101151.84;;;26.95
42673;BMP280;28284;46.514;30.724;2023-09-12T12:03:36;101143.97;;;26.93
42673;BMP280;28284;46.514;30.724;2023-09-12T12:06:02;101151.56;;;26.93
42673;BMP280;28284;46.514;30.724;2023-09-12T12:08:29;101152.31;;;26.93
42673;BMP280;28284;46.514;30.724;2023-09-12T12:10:56;101151.09;;;26.94
42673;BMP280;28284;46.514;30.724;2023-09-12T12:13:23;101143.00;;;26.96
42673;BMP280;28284;46.514;30.724;2023-09-12T12:15:48;101148.38;;;27.00
42673;BMP280;28284;46.514;30.724;2023-09-12T12:18:14;101147.13;;;27.01
42673;BMP280;28284;46.514;30.724;2023-09-12T12:20:39;101145.03;;;26.96
42673;BMP280;28284;46.514;30.724;2023-09-12T12:23:04;101134.66;;;26.96
42673;BMP280;28284;46.514;30.724;2023-09-12T12:25:33;101139.16;;;26.94
42673;BMP280;28284;46.514;30.724;2023-09-12T12:27:59;101141.84;;;26.88
42673;BMP280;28284;46.514;30.724;2023-09-12T12:30:24;101130.09;;;26.79
42673;BMP280;28284;46.514;30.724;2023-09-12T12:32:49;101127.88;;;26.69
42673;BMP280;28284;46.514;30.724;2023-09-12T12:35:21;101130.94;;;26.71
42673;BMP280;28284;46.514;30.724;2023-09-12T12:37:48;101133.03;;;26.61
42673;BMP280;28284;46.514;30.724;2023-09-12T12:40:13;101124.22;;;26.48
42673;BMP280;28284;46.514;30.724;2023-09-12T12:42:39;101126.72;;;26.46
42673;BMP280;28284;46.514;30.724;2023-09-12T12:45:16;101128.22;;;26.47
42673;BMP280;28284;46.514;30.724;2023-09-12T12:47:42;101132.53;;;26.48
42673;BMP280;28284;46.514;30.724;2023-09-12T12:50:17;101126.31;;;26.53
42673;BMP280;28284;46.514;30.724;2023-09-12T12:52:46;101116.91;;;26.51
42673;BMP280;28284;46.514;30.724;2023-09-12T12:55:12;101114.47;;;26.53
42673;BMP280;28284;46.514;30.724;2023-09-12T12:57:38;101131.13;;;26.53
42673;BMP280;28284;46.514;30.724;2023-09-12T13:00:07;101118.56;;;26.57
42673;BMP280;28284;46.514;30.724;2023-09-12T13:02:33;101120.75;;;26.53
42673;BMP280;28284;46.514;30.724;2023-09-12T13:04:58;101119.50;;;26.40
42673;BMP280;28284;46.514;30.724;2023-09-12T13:07:23;101121.59;;;26.45
42673;BMP280;28284;46.514;30.724;2023-09-12T13:09:49;101103.53;;;26.49
42673;BMP280;28284;46.514;30.724;2023-09-12T13:12:14;101113.84;;;26.49
42673;BMP280;28284;46.514;30.724;2023-09-12T13:14:40;101110.22;;;26.43
42673;BMP280;28284;46.514;30.724;2023-09-12T13:17:06;101121.44;;;26.48
42673;BMP280;28284;46.514;30.724;2023-09-12T13:19:31;101120.28;;;26.40
42673;BMP280;28284;46.514;30.724;2023-09-12T13:21:56;101124.84;;;26.29
42673;BMP280;28284;46.514;30.724;2023-09-12T13:24:22;101126.19;;;26.33
42673;BMP280;28284;46.514;30.724;2023-09-12T13:26:48;101124.75;;;26.38
42673;BMP280;28284;46.514;30.724;2023-09-12T13:29:13;101105.63;;;26.40
42673;BMP280;28284;46.514;30.724;2023-09-12T13:31:38;101116.91;;;26.51
42673;BMP280;28284;46.514;30.724;2023-09-12T13:34:04;101128.44;;;26.58
42673;BMP280;28284;46.514;30.724;2023-09-12T13:36:29;101122.28;;;26.54
42673;BMP280;28284;46.514;30.724;2023-09-12T13:38:54;101124.88;;;26.43
42673;BMP280;28284;46.514;30.724;2023-09-12T13:41:21;101120.72;;;26.24
42673;BMP280;28284;46.514;30.724;2023-09-12T13:43:48;101133.34;;;26.25
42673;BMP280;28284;46.514;30.724;2023-09-12T13:46:13;101119.00;;;26.27
42673;BMP280;28284;46.514;30.724;2023-09-12T13:48:38;101129.59;;;26.28
42673;BMP280;28284;46.514;30.724;2023-09-12T13:51:04;101116.13;;;26.21
42673;BMP280;28284;46.514;30.724;2023-09-12T13:53:29;101118.00;;;26.16